Alice Town, Bahamas

5:27 PM EST on February 05, 2016 (GMT -0500)
Fort Lauderdale-Hollywood International | | Change Station
CLOSE
Current Station
Airport
Location: Ft Lauderdale,
Elevation: 10 ft
Nearby Weather Stations

Elev 10 ft 26.07 °N, 80.15 °W | Updated 34 minutes ago

Overcast
Overcast
66 °F
Feels Like 66 °F
N
9
Wind Variable Wind from North

Today
High -- | Low -- °F
--% Chance of Precip.
Yesterday
High -- | Low -- °F
Precip. -- in
Pressure 30.13 in
Visibility 10.0 miles
Clouds Overcast 3900 ft
Dew Point 53 °F
Humidity 63%
Rainfall 0.41 in
Snow Depth Not available.
6:59 AM 6:03 PM
Waning Crescent, 9% visible
METAR KFLL 052153Z 01008KT 10SM OVC039 19/12 A3013 RMK AO2 SLP202 T01890117
Pressure 30.13 in
Visibility 10.0 miles
Clouds Overcast 3900 ft
Dew Point 53 °F
Humidity 63%
Rainfall 0.41 in
Snow Depth Not available.
6:59 AM 6:03 PM
Waning Crescent, 9% visible
METAR KFLL 052153Z 01008KT 10SM OVC039 19/12 A3013 RMK AO2 SLP202 T01890117

10-Day Weather Forecast

Almanac

Astronomy

Feb. 05, 2016 Rise Set
Actual Time
Civil Twilight
Nautical Twilight
Astronomical Twilight
Moon
Length of Visible Light
Length of Day
Tomorrow will be .
, % of the Moon is Illuminated

Today's Extremes

Country Highs Country Lows

Community

WunderPhotos

Upload Photos

1,890,878 photos uploaded!

WunderBlog® & News

Nearby

Air Quality

  Air Quality AQ Index Pollutant
Not available.

Snow Depth

Station Depth Elevation

Earthquake Activity

City Distance Mag. Time & Date
Minimum magnitude displayed is 2.5.

Coastal Water Temperatures

Place Temperature

Stations

Nearby Weather Stations

Station Location Temp. Windchill Dew Point Humidity Wind Precip. Elev Updated Type